sensor_id;sensor_type;location;lat;lon;timestamp;temperature;humidity
43579;DHT22;29174;44.640;10.896;2024-03-07T00:00:12;13.20;76.00
43579;DHT22;29174;44.640;10.896;2024-03-07T00:02:45;13.20;77.10
43579;DHT22;29174;44.640;10.896;2024-03-07T00:05:11;13.20;76.80
43579;DHT22;29174;44.640;10.896;2024-03-07T00:07:40;13.20;77.30
43579;DHT22;29174;44.640;10.896;2024-03-07T00:10:07;13.20;77.70
43579;DHT22;29174;44.640;10.896;2024-03-07T00:12:37;13.20;77.80
43579;DHT22;29174;44.640;10.896;2024-03-07T00:15:05;13.20;78.50
43579;DHT22;29174;44.640;10.896;2024-03-07T00:17:31;13.20;78.60
43579;DHT22;29174;44.640;10.896;2024-03-07T00:19:57;13.20;78.90
43579;DHT22;29174;44.640;10.896;2024-03-07T00:22:23;13.20;79.10
43579;DHT22;29174;44.640;10.896;2024-03-07T00:24:55;13.20;79.50
43579;DHT22;29174;44.640;10.896;2024-03-07T00:27:21;13.20;79.60
43579;DHT22;29174;44.640;10.896;2024-03-07T00:29:48;13.20;79.90
43579;DHT22;29174;44.640;10.896;2024-03-07T00:32:19;13.20;80.10
43579;DHT22;29174;44.640;10.896;2024-03-07T00:34:45;13.30;80.50
43579;DHT22;29174;44.640;10.896;2024-03-07T00:37:11;13.20;79.80
43579;DHT22;29174;44.640;10.896;2024-03-07T00:39:36;13.30;79.50
43579;DHT22;29174;44.640;10.896;2024-03-07T00:42:02;13.30;79.90
43579;DHT22;29174;44.640;10.896;2024-03-07T00:44:28;13.20;80.40
43579;DHT22;29174;44.640;10.896;2024-03-07T00:46:53;13.30;80.90
43579;DHT22;29174;44.640;10.896;2024-03-07T00:49:19;13.20;80.90
43579;DHT22;29174;44.640;10.896;2024-03-07T00:51:45;13.20;81.40
43579;DHT22;29174;44.640;10.896;2024-03-07T00:54:11;13.20;81.50
43579;DHT22;29174;44.640;10.896;2024-03-07T00:56:39;13.20;81.70
43579;DHT22;29174;44.640;10.896;2024-03-07T00:59:05;13.20;82.00
43579;DHT22;29174;44.640;10.896;2024-03-07T01:01:31;13.20;82.30
43579;DHT22;29174;44.640;10.896;2024-03-07T01:03:59;13.20;82.50
43579;DHT22;29174;44.640;10.896;2024-03-07T01:06:25;13.20;82.80
43579;DHT22;29174;44.640;10.896;2024-03-07T01:08:51;13.20;83.20
43579;DHT22;29174;44.640;10.896;2024-03-07T01:11:17;13.20;83.60
43579;DHT22;29174;44.640;10.896;2024-03-07T01:13:43;13.20;83.60
43579;DHT22;29174;44.640;10.896;2024-03-07T01:16:09;13.20;83.90
43579;DHT22;29174;44.640;10.896;2024-03-07T01:18:35;13.20;84.00
43579;DHT22;29174;44.640;10.896;2024-03-07T01:21:02;13.20;84.10
43579;DHT22;29174;44.640;10.896;2024-03-07T01:23:28;13.20;84.10
43579;DHT22;29174;44.640;10.896;2024-03-07T01:25:55;13.10;84.40
43579;DHT22;29174;44.640;10.896;2024-03-07T01:28:27;13.10;84.60
43579;DHT22;29174;44.640;10.896;2024-03-07T01:30:57;13.10;85.00
43579;DHT22;29174;44.640;10.896;2024-03-07T01:33:23;13.10;84.80
43579;DHT22;29174;44.640;10.896;2024-03-07T01:35:49;13.10;84.80
43579;DHT22;29174;44.640;10.896;2024-03-07T01:38:15;13.10;84.80
43579;DHT22;29174;44.640;10.896;2024-03-07T01:40:42;13.10;84.90
43579;DHT22;29174;44.640;10.896;2024-03-07T01:43:09;13.10;84.80
43579;DHT22;29174;44.640;10.896;2024-03-07T01:45:36;13.10;85.00
43579;DHT22;29174;44.640;10.896;2024-03-07T01:48:04;13.10;85.00
43579;DHT22;29174;44.640;10.896;2024-03-07T01:50:30;13.10;85.20
43579;DHT22;29174;44.640;10.896;2024-03-07T01:52:56;13.10;85.30
43579;DHT22;29174;44.640;10.896;2024-03-07T01:55:22;13.10;85.50
43579;DHT22;29174;44.640;10.896;2024-03-07T01:57:50;13.10;85.60
43579;DHT22;29174;44.640;10.896;2024-03-07T02:00:16;13.10;85.60
43579;DHT22;29174;44.640;10.896;2024-03-07T02:02:44;13.10;85.70
43579;DHT22;29174;44.640;10.896;2024-03-07T02:05:10;13.10;85.70
43579;DHT22;29174;44.640;10.896;2024-03-07T02:07:36;13.10;85.90
43579;DHT22;29174;44.640;10.896;2024-03-07T02:10:05;13.10;85.90
43579;DHT22;29174;44.640;10.896;2024-03-07T02:12:32;13.10;86.10
43579;DHT22;29174;44.640;10.896;2024-03-07T02:14:58;13.10;86.00
43579;DHT22;29174;44.640;10.896;2024-03-07T02:17:27;13.10;86.10
43579;DHT22;29174;44.640;10.896;2024-03-07T02:19:53;13.10;86.00
43579;DHT22;29174;44.640;10.896;2024-03-07T02:22:19;13.10;85.90
43579;DHT22;29174;44.640;10.896;2024-03-07T02:24:45;13.10;85.50
43579;DHT22;29174;44.640;10.896;2024-03-07T02:27:12;13.10;84.90
43579;DHT22;29174;44.640;10.896;2024-03-07T02:29:38;13.10;84.60
43579;DHT22;29174;44.640;10.896;2024-03-07T02:32:03;13.10;84.50
43579;DHT22;29174;44.640;10.896;2024-03-07T02:34:29;13.10;84.20
43579;DHT22;29174;44.640;10.896;2024-03-07T02:36:55;13.10;83.60
43579;DHT22;29174;44.640;10.896;2024-03-07T02:39:21;13.00;83.30
43579;DHT22;29174;44.640;10.896;2024-03-07T02:41:47;13.10;82.90
43579;DHT22;29174;44.640;10.896;2024-03-07T02:44:15;13.10;82.50
43579;DHT22;29174;44.640;10.896;2024-03-07T02:46:41;13.10;82.30
43579;DHT22;29174;44.640;10.896;2024-03-07T02:49:07;13.10;81.80
43579;DHT22;29174;44.640;10.896;2024-03-07T02:51:33;13.10;81.60
43579;DHT22;29174;44.640;10.896;2024-03-07T02:53:58;13.10;81.00
43579;DHT22;29174;44.640;10.896;2024-03-07T02:56:24;13.10;80.80
43579;DHT22;29174;44.640;10.896;2024-03-07T02:58:53;13.10;79.70
43579;DHT22;29174;44.640;10.896;2024-03-07T03:01:19;13.10;79.00
43579;DHT22;29174;44.640;10.896;2024-03-07T03:03:45;13.10;78.50
43579;DHT22;29174;44.640;10.896;2024-03-07T03:06:10;13.10;77.90
43579;DHT22;29174;44.640;10.896;2024-03-07T03:08:36;13.10;77.70
43579;DHT22;29174;44.640;10.896;2024-03-07T03:11:03;13.10;77.60
43579;DHT22;29174;44.640;10.896;2024-03-07T03:13:29;13.10;77.60
43579;DHT22;29174;44.640;10.896;2024-03-07T03:15:55;13.10;77.60
43579;DHT22;29174;44.640;10.896;2024-03-07T03:18:23;13.00;77.10
43579;DHT22;29174;44.640;10.896;2024-03-07T03:20:49;13.00;76.80
43579;DHT22;29174;44.640;10.896;2024-03-07T03:23:15;13.00;76.80
43579;DHT22;29174;44.640;10.896;2024-03-07T03:25:42;13.00;76.60
43579;DHT22;29174;44.640;10.896;2024-03-07T03:28:08;13.00;76.20
43579;DHT22;29174;44.640;10.896;2024-03-07T03:30:41;13.00;75.60
43579;DHT22;29174;44.640;10.896;2024-03-07T03:33:07;13.00;75.30
43579;DHT22;29174;44.640;10.896;2024-03-07T03:35:34;13.00;75.10
43579;DHT22;29174;44.640;10.896;2024-03-07T03:37:59;13.00;74.90
43579;DHT22;29174;44.640;10.896;2024-03-07T03:40:25;13.00;74.90
43579;DHT22;29174;44.640;10.896;2024-03-07T03:42:51;13.00;74.80
43579;DHT22;29174;44.640;10.896;2024-03-07T03:45:17;13.00;74.80
43579;DHT22;29174;44.640;10.896;2024-03-07T03:47:44;13.00;74.30
43579;DHT22;29174;44.640;10.896;2024-03-07T03:50:11;12.90;74.20
43579;DHT22;29174;44.640;10.896;2024-03-07T03:52:37;12.90;73.90
43579;DHT22;29174;44.640;10.896;2024-03-07T03:55:06;12.90;73.70
43579;DHT22;29174;44.640;10.896;2024-03-07T03:57:33;12.90;73.60
43579;DHT22;29174;44.640;10.896;2024-03-07T03:59:59;13.00;73.60
43579;DHT22;29174;44.640;10.896;2024-03-07T04:02:26;12.90;73.40
43579;DHT22;29174;44.640;10.896;2024-03-07T04:04:52;12.90;73.30
43579;DHT22;29174;44.640;10.896;2024-03-07T04:07:19;12.90;73.20
43579;DHT22;29174;44.640;10.896;2024-03-07T04:09:45;12.90;73.30
43579;DHT22;29174;44.640;10.896;2024-03-07T04:12:12;12.90;73.20
43579;DHT22;29174;44.640;10.896;2024-03-07T04:14:39;12.90;73.20
43579;DHT22;29174;44.640;10.896;2024-03-07T04:17:09;12.90;73.30
43579;DHT22;29174;44.640;10.896;2024-03-07T04:19:35;12.90;73.70
43579;DHT22;29174;44.640;10.896;2024-03-07T04:22:02;12.80;73.70
43579;DHT22;29174;44.640;10.896;2024-03-07T04:24:31;12.80;73.80
43579;DHT22;29174;44.640;10.896;2024-03-07T04:26:59;12.80;73.90
43579;DHT22;29174;44.640;10.896;2024-03-07T04:29:26;12.90;73.70
43579;DHT22;29174;44.640;10.896;2024-03-07T04:31:51;12.80;73.90
43579;DHT22;29174;44.640;10.896;2024-03-07T04:34:17;12.80;74.10
43579;DHT22;29174;44.640;10.896;2024-03-07T04:36:43;12.80;74.00
43579;DHT22;29174;44.640;10.896;2024-03-07T04:39:08;12.80;74.00
43579;DHT22;29174;44.640;10.896;2024-03-07T04:41:48;12.80;74.00
43579;DHT22;29174;44.640;10.896;2024-03-07T04:44:13;12.70;74.00
43579;DHT22;29174;44.640;10.896;2024-03-07T04:46:39;12.70;74.00
43579;DHT22;29174;44.640;10.896;2024-03-07T04:49:08;12.70;74.20
43579;DHT22;29174;44.640;10.896;2024-03-07T04:51:34;12.60;74.40
43579;DHT22;29174;44.640;10.896;2024-03-07T04:54:00;12.60;74.60
43579;DHT22;29174;44.640;10.896;2024-03-07T04:56:29;12.60;74.70
43579;DHT22;29174;44.640;10.896;2024-03-07T04:58:56;12.50;74.80
43579;DHT22;29174;44.640;10.896;2024-03-07T05:01:21;12.50;74.80
43579;DHT22;29174;44.640;10.896;2024-03-07T05:03:49;12.50;74.90
43579;DHT22;29174;44.640;10.896;2024-03-07T05:06:14;12.40;74.90
43579;DHT22;29174;44.640;10.896;2024-03-07T05:08:42;12.50;74.90
43579;DHT22;29174;44.640;10.896;2024-03-07T05:11:08;12.50;74.50
43579;DHT22;29174;44.640;10.896;2024-03-07T05:13:34;12.40;74.60
43579;DHT22;29174;44.640;10.896;2024-03-07T05:15:59;12.40;74.80
43579;DHT22;29174;44.640;10.896;2024-03-07T05:18:26;12.30;74.80
43579;DHT22;29174;44.640;10.896;2024-03-07T05:20:52;12.30;75.10
43579;DHT22;29174;44.640;10.896;2024-03-07T05:23:19;12.30;75.40
43579;DHT22;29174;44.640;10.896;2024-03-07T05:25:45;12.20;75.50
43579;DHT22;29174;44.640;10.896;2024-03-07T05:28:11;12.20;75.60
43579;DHT22;29174;44.640;10.896;2024-03-07T05:30:37;12.20;75.70
43579;DHT22;29174;44.640;10.896;2024-03-07T05:33:03;12.10;75.90
43579;DHT22;29174;44.640;10.896;2024-03-07T05:35:29;12.00;76.30
43579;DHT22;29174;44.640;10.896;2024-03-07T05:37:55;12.00;76.40
43579;DHT22;29174;44.640;10.896;2024-03-07T05:40:22;12.00;76.50
43579;DHT22;29174;44.640;10.896;2024-03-07T05:42:48;11.90;76.50
43579;DHT22;29174;44.640;10.896;2024-03-07T05:45:14;11.90;76.60
43579;DHT22;29174;44.640;10.896;2024-03-07T05:47:43;11.90;76.70
43579;DHT22;29174;44.640;10.896;2024-03-07T05:50:09;11.90;76.70
43579;DHT22;29174;44.640;10.896;2024-03-07T05:52:35;11.90;76.70
43579;DHT22;29174;44.640;10.896;2024-03-07T05:55:00;11.80;76.70
43579;DHT22;29174;44.640;10.896;2024-03-07T05:57:26;11.80;76.80
43579;DHT22;29174;44.640;10.896;2024-03-07T05:59:52;11.70;77.00
43579;DHT22;29174;44.640;10.896;2024-03-07T06:02:17;11.70;77.10
43579;DHT22;29174;44.640;10.896;2024-03-07T06:04:44;11.70;77.20
43579;DHT22;29174;44.640;10.896;2024-03-07T06:07:10;11.60;77.40
43579;DHT22;29174;44.640;10.896;2024-03-07T06:09:36;11.60;77.60
43579;DHT22;29174;44.640;10.896;2024-03-07T06:12:02;11.60;77.80
43579;DHT22;29174;44.640;10.896;2024-03-07T06:14:29;11.60;78.00
43579;DHT22;29174;44.640;10.896;2024-03-07T06:16:56;11.60;77.80
43579;DHT22;29174;44.640;10.896;2024-03-07T06:19:23;11.50;78.00
43579;DHT22;29174;44.640;10.896;2024-03-07T06:21:49;11.50;78.20
43579;DHT22;29174;44.640;10.896;2024-03-07T06:24:15;11.50;78.50
43579;DHT22;29174;44.640;10.896;2024-03-07T06:26:44;11.50;78.70
43579;DHT22;29174;44.640;10.896;2024-03-07T06:29:09;11.60;78.80
43579;DHT22;29174;44.640;10.896;2024-03-07T06:31:37;11.60;78.90
43579;DHT22;29174;44.640;10.896;2024-03-07T06:34:03;11.60;79.40
43579;DHT22;29174;44.640;10.896;2024-03-07T06:36:29;11.60;79.40
43579;DHT22;29174;44.640;10.896;2024-03-07T06:38:55;11.60;79.40
43579;DHT22;29174;44.640;10.896;2024-03-07T06:41:20;11.60;79.40
43579;DHT22;29174;44.640;10.896;2024-03-07T06:43:46;11.70;79.80
43579;DHT22;29174;44.640;10.896;2024-03-07T06:46:13;11.70;79.70
43579;DHT22;29174;44.640;10.896;2024-03-07T06:48:39;11.70;80.00
43579;DHT22;29174;44.640;10.896;2024-03-07T06:51:06;11.80;80.00
43579;DHT22;29174;44.640;10.896;2024-03-07T06:53:32;11.80;79.70
43579;DHT22;29174;44.640;10.896;2024-03-07T06:55:58;11.90;79.30
43579;DHT22;29174;44.640;10.896;2024-03-07T06:58:24;11.90;78.90
43579;DHT22;29174;44.640;10.896;2024-03-07T07:00:51;12.00;78.80
43579;DHT22;29174;44.640;10.896;2024-03-07T07:03:20;12.00;77.90
43579;DHT22;29174;44.640;10.896;2024-03-07T07:05:46;12.10;77.40
43579;DHT22;29174;44.640;10.896;2024-03-07T07:11:18;12.20;77.30
43579;DHT22;29174;44.640;10.896;2024-03-07T07:13:44;12.20;76.20
43579;DHT22;29174;44.640;10.896;2024-03-07T07:16:12;12.20;75.80
43579;DHT22;29174;44.640;10.896;2024-03-07T07:18:38;12.30;75.90
43579;DHT22;29174;44.640;10.896;2024-03-07T07:21:03;12.30;75.40
43579;DHT22;29174;44.640;10.896;2024-03-07T07:23:29;12.40;75.40
43579;DHT22;29174;44.640;10.896;2024-03-07T07:25:55;12.40;75.70
43579;DHT22;29174;44.640;10.896;2024-03-07T07:28:21;12.50;75.70
43579;DHT22;29174;44.640;10.896;2024-03-07T07:36:12;12.80;74.30
43579;DHT22;29174;44.640;10.896;2024-03-07T07:38:38;13.60;73.90
43579;DHT22;29174;44.640;10.896;2024-03-07T07:41:04;13.00;73.60
43579;DHT22;29174;44.640;10.896;2024-03-07T07:43:30;13.00;73.70
43579;DHT22;29174;44.640;10.896;2024-03-07T07:45:56;13.10;74.00
43579;DHT22;29174;44.640;10.896;2024-03-07T07:48:22;13.30;73.90
43579;DHT22;29174;44.640;10.896;2024-03-07T07:50:49;13.40;74.00
43579;DHT22;29174;44.640;10.896;2024-03-07T07:53:16;13.50;73.80
43579;DHT22;29174;44.640;10.896;2024-03-07T07:55:42;13.60;73.70
43579;DHT22;29174;44.640;10.896;2024-03-07T07:58:07;13.70;74.00
43579;DHT22;29174;44.640;10.896;2024-03-07T08:00:33;13.90;73.10
43579;DHT22;29174;44.640;10.896;2024-03-07T08:03:01;14.00;72.60
43579;DHT22;29174;44.640;10.896;2024-03-07T08:05:31;14.10;71.80
43579;DHT22;29174;44.640;10.896;2024-03-07T08:08:00;14.20;70.90
43579;DHT22;29174;44.640;10.896;2024-03-07T08:10:27;14.40;70.50
43579;DHT22;29174;44.640;10.896;2024-03-07T08:12:59;14.50;70.70
43579;DHT22;29174;44.640;10.896;2024-03-07T08:15:27;14.60;69.50
43579;DHT22;29174;44.640;10.896;2024-03-07T08:17:53;14.70;69.20
43579;DHT22;29174;44.640;10.896;2024-03-07T08:20:21;14.80;69.00
43579;DHT22;29174;44.640;10.896;2024-03-07T08:22:48;14.90;68.60
43579;DHT22;29174;44.640;10.896;2024-03-07T08:25:17;15.00;69.00
43579;DHT22;29174;44.640;10.896;2024-03-07T08:27:47;15.20;68.60
43579;DHT22;29174;44.640;10.896;2024-03-07T08:30:14;15.30;68.90
43579;DHT22;29174;44.640;10.896;2024-03-07T08:32:44;15.30;68.20
43579;DHT22;29174;44.640;10.896;2024-03-07T08:35:10;15.40;68.10
43579;DHT22;29174;44.640;10.896;2024-03-07T08:37:47;15.50;67.60
43579;DHT22;29174;44.640;10.896;2024-03-07T08:40:22;15.60;67.00
43579;DHT22;29174;44.640;10.896;2024-03-07T08:42:51;15.70;67.20
43579;DHT22;29174;44.640;10.896;2024-03-07T08:45:18;15.80;67.00
43579;DHT22;29174;44.640;10.896;2024-03-07T08:47:48;15.90;65.90
43579;DHT22;29174;44.640;10.896;2024-03-07T08:50:15;15.90;65.60
43579;DHT22;29174;44.640;10.896;2024-03-07T08:52:44;16.00;66.00
43579;DHT22;29174;44.640;10.896;2024-03-07T08:55:12;16.10;65.90
43579;DHT22;29174;44.640;10.896;2024-03-07T08:57:40;16.20;64.90
43579;DHT22;29174;44.640;10.896;2024-03-07T09:00:07;16.20;64.30
43579;DHT22;29174;44.640;10.896;2024-03-07T09:02:59;16.30;64.00
43579;DHT22;29174;44.640;10.896;2024-03-07T09:05:25;16.30;63.10
43579;DHT22;29174;44.640;10.896;2024-03-07T09:07:53;16.40;63.20
43579;DHT22;29174;44.640;10.896;2024-03-07T09:10:19;16.40;63.50
43579;DHT22;29174;44.640;10.896;2024-03-07T09:12:46;16.50;63.50
43579;DHT22;29174;44.640;10.896;2024-03-07T09:15:14;16.60;63.50
43579;DHT22;29174;44.640;10.896;2024-03-07T09:17:41;16.60;63.30
43579;DHT22;29174;44.640;10.896;2024-03-07T09:20:08;16.70;62.40
43579;DHT22;29174;44.640;10.896;2024-03-07T09:22:43;16.80;61.50
43579;DHT22;29174;44.640;10.896;2024-03-07T09:25:09;16.80;61.60
43579;DHT22;29174;44.640;10.896;2024-03-07T09:27:39;16.90;60.90
43579;DHT22;29174;44.640;10.896;2024-03-07T09:30:10;16.90;60.40
43579;DHT22;29174;44.640;10.896;2024-03-07T09:32:44;16.90;61.70
43579;DHT22;29174;44.640;10.896;2024-03-07T09:35:11;17.00;61.30
43579;DHT22;29174;44.640;10.896;2024-03-07T09:37:43;17.10;61.60
43579;DHT22;29174;44.640;10.896;2024-03-07T09:40:10;17.10;60.30
43579;DHT22;29174;44.640;10.896;2024-03-07T09:42:48;17.20;60.50
43579;DHT22;29174;44.640;10.896;2024-03-07T09:45:16;17.30;61.60
43579;DHT22;29174;44.640;10.896;2024-03-07T09:47:43;17.30;60.90
43579;DHT22;29174;44.640;10.896;2024-03-07T09:50:10;17.40;60.30
43579;DHT22;29174;44.640;10.896;2024-03-07T09:52:36;17.40;59.60
43579;DHT22;29174;44.640;10.896;2024-03-07T09:55:02;17.30;59.60
43579;DHT22;29174;44.640;10.896;2024-03-07T09:57:30;17.30;59.80
43579;DHT22;29174;44.640;10.896;2024-03-07T09:59:58;17.20;59.60
43579;DHT22;29174;44.640;10.896;2024-03-07T10:02:26;17.10;59.90
43579;DHT22;29174;44.640;10.896;2024-03-07T10:04:53;17.10;59.70
43579;DHT22;29174;44.640;10.896;2024-03-07T10:07:20;17.00;60.10
43579;DHT22;29174;44.640;10.896;2024-03-07T10:09:47;16.90;60.10
43579;DHT22;29174;44.640;10.896;2024-03-07T10:12:15;16.90;61.30
43579;DHT22;29174;44.640;10.896;2024-03-07T10:14:51;16.90;61.10
43579;DHT22;29174;44.640;10.896;2024-03-07T10:17:25;16.80;59.60
43579;DHT22;29174;44.640;10.896;2024-03-07T10:19:53;16.80;60.30
43579;DHT22;29174;44.640;10.896;2024-03-07T10:22:20;16.80;60.90
43579;DHT22;29174;44.640;10.896;2024-03-07T10:24:52;16.80;61.10
43579;DHT22;29174;44.640;10.896;2024-03-07T10:27:19;16.80;60.00
43579;DHT22;29174;44.640;10.896;2024-03-07T10:29:47;16.80;59.70
43579;DHT22;29174;44.640;10.896;2024-03-07T10:32:13;16.80;59.60
43579;DHT22;29174;44.640;10.896;2024-03-07T10:34:39;16.90;59.80
43579;DHT22;29174;44.640;10.896;2024-03-07T10:37:05;16.90;59.90
43579;DHT22;29174;44.640;10.896;2024-03-07T10:39:34;16.90;59.70
43579;DHT22;29174;44.640;10.896;2024-03-07T10:42:01;17.00;59.50
43579;DHT22;29174;44.640;10.896;2024-03-07T10:44:31;17.00;60.20
43579;DHT22;29174;44.640;10.896;2024-03-07T10:46:58;17.10;60.30
43579;DHT22;29174;44.640;10.896;2024-03-07T10:49:26;17.20;60.50
43579;DHT22;29174;44.640;10.896;2024-03-07T10:52:06;17.30;60.70
43579;DHT22;29174;44.640;10.896;2024-03-07T10:57:23;17.40;60.50
43579;DHT22;29174;44.640;10.896;2024-03-07T10:59:56;17.40;59.60
43579;DHT22;29174;44.640;10.896;2024-03-07T11:04:53;17.60;60.30
43579;DHT22;29174;44.640;10.896;2024-03-07T11:07:20;17.60;60.00
43579;DHT22;29174;44.640;10.896;2024-03-07T11:09:49;17.70;59.70
43579;DHT22;29174;44.640;10.896;2024-03-07T11:12:19;17.80;58.20
43579;DHT22;29174;44.640;10.896;2024-03-07T11:14:47;17.80;58.20
43579;DHT22;29174;44.640;10.896;2024-03-07T11:17:15;17.80;58.00
43579;DHT22;29174;44.640;10.896;2024-03-07T11:19:41;17.90;57.10
43579;DHT22;29174;44.640;10.896;2024-03-07T11:22:08;17.90;57.30
43579;DHT22;29174;44.640;10.896;2024-03-07T11:24:43;17.90;57.80
43579;DHT22;29174;44.640;10.896;2024-03-07T11:27:12;18.00;57.80
43579;DHT22;29174;44.640;10.896;2024-03-07T11:29:41;17.90;58.00
43579;DHT22;29174;44.640;10.896;2024-03-07T11:32:14;17.90;58.30
43579;DHT22;29174;44.640;10.896;2024-03-07T11:34:44;17.80;58.00
43579;DHT22;29174;44.640;10.896;2024-03-07T11:37:20;17.90;56.70
43579;DHT22;29174;44.640;10.896;2024-03-07T11:40:02;17.90;55.20
43579;DHT22;29174;44.640;10.896;2024-03-07T11:42:34;17.80;55.80
43579;DHT22;29174;44.640;10.896;2024-03-07T11:45:02;17.80;56.20
43579;DHT22;29174;44.640;10.896;2024-03-07T11:47:38;17.80;56.60
43579;DHT22;29174;44.640;10.896;2024-03-07T11:50:05;17.80;56.60
43579;DHT22;29174;44.640;10.896;2024-03-07T11:52:37;17.80;57.20
43579;DHT22;29174;44.640;10.896;2024-03-07T11:55:08;17.80;57.30
43579;DHT22;29174;44.640;10.896;2024-03-07T11:57:33;17.90;57.10
43579;DHT22;29174;44.640;10.896;2024-03-07T12:00:00;18.00;57.10
43579;DHT22;29174;44.640;10.896;2024-03-07T12:02:27;18.10;56.30
43579;DHT22;29174;44.640;10.896;2024-03-07T12:04:54;18.10;56.10
43579;DHT22;29174;44.640;10.896;2024-03-07T12:07:20;18.20;56.10
43579;DHT22;29174;44.640;10.896;2024-03-07T12:09:49;18.20;55.60
43579;DHT22;29174;44.640;10.896;2024-03-07T12:12:21;18.20;54.80
43579;DHT22;29174;44.640;10.896;2024-03-07T12:14:48;18.10;54.80
43579;DHT22;29174;44.640;10.896;2024-03-07T12:17:16;18.10;55.40
43579;DHT22;29174;44.640;10.896;2024-03-07T12:19:43;18.10;55.70
43579;DHT22;29174;44.640;10.896;2024-03-07T12:22:11;18.00;55.10
43579;DHT22;29174;44.640;10.896;2024-03-07T12:24:41;18.00;54.70
43579;DHT22;29174;44.640;10.896;2024-03-07T12:27:15;17.90;54.50
43579;DHT22;29174;44.640;10.896;2024-03-07T12:29:41;17.90;54.20
43579;DHT22;29174;44.640;10.896;2024-03-07T12:32:08;17.80;54.60
43579;DHT22;29174;44.640;10.896;2024-03-07T12:34:39;17.80;54.70
43579;DHT22;29174;44.640;10.896;2024-03-07T12:37:09;17.80;54.60
43579;DHT22;29174;44.640;10.896;2024-03-07T12:39:35;17.70;54.40
43579;DHT22;29174;44.640;10.896;2024-03-07T12:42:04;17.70;54.10
43579;DHT22;29174;44.640;10.896;2024-03-07T12:44:44;17.70;54.60
43579;DHT22;29174;44.640;10.896;2024-03-07T12:47:14;17.70;55.00
43579;DHT22;29174;44.640;10.896;2024-03-07T12:49:40;17.70;55.50
43579;DHT22;29174;44.640;10.896;2024-03-07T12:52:06;17.70;56.00
43579;DHT22;29174;44.640;10.896;2024-03-07T12:54:36;17.80;56.30
43579;DHT22;29174;44.640;10.896;2024-03-07T12:57:08;17.90;56.20
43579;DHT22;29174;44.640;10.896;2024-03-07T12:59:40;17.90;54.90
43579;DHT22;29174;44.640;10.896;2024-03-07T13:02:10;17.80;54.30
43579;DHT22;29174;44.640;10.896;2024-03-07T13:04:37;17.80;53.70
43579;DHT22;29174;44.640;10.896;2024-03-07T13:07:06;17.80;54.20
43579;DHT22;29174;44.640;10.896;2024-03-07T13:09:35;17.70;54.00
43579;DHT22;29174;44.640;10.896;2024-03-07T13:12:03;17.70;53.90
43579;DHT22;29174;44.640;10.896;2024-03-07T13:14:32;17.70;53.60
43579;DHT22;29174;44.640;10.896;2024-03-07T13:17:00;18.90;53.90
43579;DHT22;29174;44.640;10.896;2024-03-07T13:19:29;17.70;52.80
43579;DHT22;29174;44.640;10.896;2024-03-07T13:21:55;17.60;52.60
43579;DHT22;29174;44.640;10.896;2024-03-07T13:24:25;17.60;52.60
43579;DHT22;29174;44.640;10.896;2024-03-07T13:26:52;17.60;53.00
43579;DHT22;29174;44.640;10.896;2024-03-07T13:29:19;17.60;52.80
43579;DHT22;29174;44.640;10.896;2024-03-07T13:31:51;17.60;52.80
43579;DHT22;29174;44.640;10.896;2024-03-07T13:34:17;17.60;52.80
43579;DHT22;29174;44.640;10.896;2024-03-07T13:36:43;17.60;53.00
43579;DHT22;29174;44.640;10.896;2024-03-07T13:39:11;17.60;53.60
43579;DHT22;29174;44.640;10.896;2024-03-07T13:41:44;17.60;54.00
43579;DHT22;29174;44.640;10.896;2024-03-07T13:44:16;17.60;54.20
43579;DHT22;29174;44.640;10.896;2024-03-07T13:46:44;17.60;53.70
43579;DHT22;29174;44.640;10.896;2024-03-07T13:49:10;17.60;53.40
43579;DHT22;29174;44.640;10.896;2024-03-07T13:51:39;17.60;53.80
43579;DHT22;29174;44.640;10.896;2024-03-07T13:54:16;17.60;53.80
43579;DHT22;29174;44.640;10.896;2024-03-07T13:57:33;17.60;53.60
43579;DHT22;29174;44.640;10.896;2024-03-07T14:22:38;17.40;52.60
43579;DHT22;29174;44.640;10.896;2024-03-07T14:28:05;17.40;52.90
43579;DHT22;29174;44.640;10.896;2024-03-07T14:30:55;17.40;52.90
43579;DHT22;29174;44.640;10.896;2024-03-07T14:33:32;17.40;53.00
43579;DHT22;29174;44.640;10.896;2024-03-07T14:36:10;17.40;53.20
43579;DHT22;29174;44.640;10.896;2024-03-07T14:41:05;17.40;53.60
43579;DHT22;29174;44.640;10.896;2024-03-07T14:43:34;17.40;53.60
43579;DHT22;29174;44.640;10.896;2024-03-07T14:46:00;17.40;53.60
43579;DHT22;29174;44.640;10.896;2024-03-07T14:48:25;17.40;53.60
43579;DHT22;29174;44.640;10.896;2024-03-07T14:50:53;17.30;53.80
43579;DHT22;29174;44.640;10.896;2024-03-07T14:53:19;17.30;54.20
43579;DHT22;29174;44.640;10.896;2024-03-07T14:55:46;17.40;54.40
43579;DHT22;29174;44.640;10.896;2024-03-07T14:58:12;17.30;53.70
43579;DHT22;29174;44.640;10.896;2024-03-07T15:00:40;17.30;54.00
43579;DHT22;29174;44.640;10.896;2024-03-07T15:03:14;17.30;53.30
43579;DHT22;29174;44.640;10.896;2024-03-07T15:05:43;17.20;53.40
43579;DHT22;29174;44.640;10.896;2024-03-07T15:08:12;17.20;53.50
43579;DHT22;29174;44.640;10.896;2024-03-07T15:10:42;17.20;53.60
43579;DHT22;29174;44.640;10.896;2024-03-07T15:13:12;17.20;53.70
43579;DHT22;29174;44.640;10.896;2024-03-07T15:15:38;17.20;53.60
43579;DHT22;29174;44.640;10.896;2024-03-07T15:18:05;17.30;53.60
43579;DHT22;29174;44.640;10.896;2024-03-07T15:20:31;17.20;53.60
43579;DHT22;29174;44.640;10.896;2024-03-07T15:22:58;17.20;53.80
43579;DHT22;29174;44.640;10.896;2024-03-07T15:25:25;17.10;54.00
43579;DHT22;29174;44.640;10.896;2024-03-07T15:27:55;17.10;54.30
43579;DHT22;29174;44.640;10.896;2024-03-07T15:30:27;17.00;54.30
43579;DHT22;29174;44.640;10.896;2024-03-07T15:33:03;17.00;54.40
43579;DHT22;29174;44.640;10.896;2024-03-07T15:35:32;17.00;54.50
43579;DHT22;29174;44.640;10.896;2024-03-07T15:37:59;17.00;54.60
43579;DHT22;29174;44.640;10.896;2024-03-07T15:40:24;17.00;54.60
43579;DHT22;29174;44.640;10.896;2024-03-07T15:42:54;17.00;54.60
43579;DHT22;29174;44.640;10.896;2024-03-07T15:45:23;17.10;54.50
43579;DHT22;29174;44.640;10.896;2024-03-07T15:47:54;17.00;54.20
43579;DHT22;29174;44.640;10.896;2024-03-07T15:50:21;17.10;54.10
43579;DHT22;29174;44.640;10.896;2024-03-07T15:52:51;17.00;53.80
43579;DHT22;29174;44.640;10.896;2024-03-07T15:55:17;16.90;53.80
43579;DHT22;29174;44.640;10.896;2024-03-07T15:57:45;16.90;54.00
43579;DHT22;29174;44.640;10.896;2024-03-07T16:00:13;16.80;54.20